sensor_id;sensor_type;location;lat;lon;timestamp;pressure;altitude;pressure_sealevel;temperature;humidity
37904;BME280;23738;50.422;18.758;2023-04-07T00:00:58;98501.70;;;1.23;72.76
37904;BME280;23738;50.422;18.758;2023-04-07T00:03:27;98502.60;;;1.25;72.85
37904;BME280;23738;50.422;18.758;2023-04-07T00:05:56;98500.85;;;1.27;73.00
37904;BME280;23738;50.422;18.758;2023-04-07T00:08:25;98493.81;;;1.32;72.90
37904;BME280;23738;50.422;18.758;2023-04-07T00:10:55;98493.48;;;1.33;73.08
37904;BME280;23738;50.422;18.758;2023-04-07T00:13:25;98488.71;;;1.32;73.15
37904;BME280;23738;50.422;18.758;2023-04-07T00:15:55;98489.30;;;1.32;73.28
37904;BME280;23738;50.422;18.758;2023-04-07T00:18:24;98486.57;;;1.27;73.28
37904;BME280;23738;50.422;18.758;2023-04-07T00:20:53;98484.42;;;1.25;73.37
37904;BME280;23738;50.422;18.758;2023-04-07T00:23:22;98481.86;;;1.22;73.32
37904;BME280;23738;50.422;18.758;2023-04-07T00:25:52;98479.89;;;1.21;73.36
37904;BME280;23738;50.422;18.758;2023-04-07T00:28:21;98479.05;;;1.21;73.15
37904;BME280;23738;50.422;18.758;2023-04-07T00:30:51;98475.33;;;1.22;73.50
37904;BME280;23738;50.422;18.758;2023-04-07T00:33:20;98472.25;;;1.23;73.53
37904;BME280;23738;50.422;18.758;2023-04-07T00:35:49;98469.19;;;1.22;73.76
37904;BME280;23738;50.422;18.758;2023-04-07T00:38:18;98469.55;;;1.20;73.84
37904;BME280;23738;50.422;18.758;2023-04-07T00:40:48;98463.54;;;1.18;73.96
37904;BME280;23738;50.422;18.758;2023-04-07T00:43:17;98457.42;;;1.14;73.83
37904;BME280;23738;50.422;18.758;2023-04-07T00:45:47;98459.70;;;1.12;73.88
37904;BME280;23738;50.422;18.758;2023-04-07T00:48:16;98461.67;;;1.11;73.85
37904;BME280;23738;50.422;18.758;2023-04-07T00:50:46;98459.52;;;1.14;73.93
37904;BME280;23738;50.422;18.758;2023-04-07T00:53:16;98461.98;;;1.16;74.02
37904;BME280;23738;50.422;18.758;2023-04-07T00:55:45;98461.41;;;1.14;74.07
37904;BME280;23738;50.422;18.758;2023-04-07T00:58:15;98458.41;;;1.15;74.37
37904;BME280;23738;50.422;18.758;2023-04-07T01:00:50;98458.56;;;1.13;74.20
37904;BME280;23738;50.422;18.758;2023-04-07T01:03:29;98460.75;;;1.16;74.35
37904;BME280;23738;50.422;18.758;2023-04-07T01:06:03;98458.23;;;1.15;74.26
37904;BME280;23738;50.422;18.758;2023-04-07T01:08:46;98454.09;;;1.17;74.22
37904;BME280;23738;50.422;18.758;2023-04-07T01:11:24;98449.27;;;1.18;74.40
37904;BME280;23738;50.422;18.758;2023-04-07T01:13:57;98448.80;;;1.18;74.29
37904;BME280;23738;50.422;18.758;2023-04-07T01:16:33;98443.88;;;1.20;74.66
37904;BME280;23738;50.422;18.758;2023-04-07T01:19:13;98443.79;;;1.21;74.37
37904;BME280;23738;50.422;18.758;2023-04-07T01:21:45;98440.52;;;1.19;74.70
37904;BME280;23738;50.422;18.758;2023-04-07T01:24:33;98439.39;;;1.16;75.07
37904;BME280;23738;50.422;18.758;2023-04-07T01:27:18;98434.03;;;1.12;74.73
37904;BME280;23738;50.422;18.758;2023-04-07T01:29:50;98432.55;;;1.11;74.76
37904;BME280;23738;50.422;18.758;2023-04-07T01:32:22;98438.41;;;1.12;74.67
37904;BME280;23738;50.422;18.758;2023-04-07T01:34:54;98435.80;;;1.12;74.76
37904;BME280;23738;50.422;18.758;2023-04-07T01:37:26;98432.27;;;1.14;74.77
37904;BME280;23738;50.422;18.758;2023-04-07T01:39:56;98434.48;;;1.15;75.01
37904;BME280;23738;50.422;18.758;2023-04-07T01:42:26;98432.89;;;1.13;75.25
37904;BME280;23738;50.422;18.758;2023-04-07T01:44:56;98429.58;;;1.10;75.32
37904;BME280;23738;50.422;18.758;2023-04-07T01:47:26;98434.45;;;1.06;75.33
37904;BME280;23738;50.422;18.758;2023-04-07T01:49:58;98429.42;;;1.04;75.19
37904;BME280;23738;50.422;18.758;2023-04-07T01:52:31;98432.29;;;1.03;75.48
37904;BME280;23738;50.422;18.758;2023-04-07T01:55:01;98428.81;;;1.05;75.21
37904;BME280;23738;50.422;18.758;2023-04-07T01:57:31;98420.46;;;1.07;75.64
37904;BME280;23738;50.422;18.758;2023-04-07T02:00:00;98417.94;;;1.06;75.36
37904;BME280;23738;50.422;18.758;2023-04-07T02:02:30;98419.55;;;1.06;75.42
37904;BME280;23738;50.422;18.758;2023-04-07T02:05:05;98416.90;;;1.04;75.42
37904;BME280;23738;50.422;18.758;2023-04-07T02:07:41;98421.08;;;1.02;75.46
37904;BME280;23738;50.422;18.758;2023-04-07T02:10:16;98420.89;;;1.03;75.45
37904;BME280;23738;50.422;18.758;2023-04-07T02:12:48;98422.63;;;1.04;75.62
37904;BME280;23738;50.422;18.758;2023-04-07T02:15:20;98419.83;;;1.06;75.48
37904;BME280;23738;50.422;18.758;2023-04-07T02:17:53;98418.40;;;1.09;75.74
37904;BME280;23738;50.422;18.758;2023-04-07T02:20:24;98419.26;;;1.12;75.93
37904;BME280;23738;50.422;18.758;2023-04-07T02:22:53;98420.02;;;1.13;75.84
37904;BME280;23738;50.422;18.758;2023-04-07T02:25:25;98417.89;;;1.14;75.90
37904;BME280;23738;50.422;18.758;2023-04-07T02:27:57;98419.42;;;1.13;76.03
37904;BME280;23738;50.422;18.758;2023-04-07T02:30:28;98418.27;;;1.10;76.14
37904;BME280;23738;50.422;18.758;2023-04-07T02:32:57;98421.96;;;1.08;75.93
37904;BME280;23738;50.422;18.758;2023-04-07T02:35:26;98416.92;;;1.08;75.80
37904;BME280;23738;50.422;18.758;2023-04-07T02:37:56;98423.19;;;1.11;75.96
37904;BME280;23738;50.422;18.758;2023-04-07T02:40:25;98417.10;;;1.13;76.03
37904;BME280;23738;50.422;18.758;2023-04-07T02:42:54;98419.30;;;1.14;75.95
37904;BME280;23738;50.422;18.758;2023-04-07T02:45:24;98422.07;;;1.14;76.17
37904;BME280;23738;50.422;18.758;2023-04-07T02:47:53;98425.17;;;1.12;76.19
37904;BME280;23738;50.422;18.758;2023-04-07T02:50:22;98420.19;;;1.10;76.39
37904;BME280;23738;50.422;18.758;2023-04-07T02:52:53;98419.69;;;1.08;76.44
37904;BME280;23738;50.422;18.758;2023-04-07T02:55:22;98415.58;;;1.07;76.13
37904;BME280;23738;50.422;18.758;2023-04-07T02:57:51;98410.88;;;1.09;76.19
37904;BME280;23738;50.422;18.758;2023-04-07T03:00:21;98410.84;;;1.13;76.22
37904;BME280;23738;50.422;18.758;2023-04-07T03:02:50;98407.69;;;1.16;76.21
37904;BME280;23738;50.422;18.758;2023-04-07T03:05:20;98404.44;;;1.15;76.41
37904;BME280;23738;50.422;18.758;2023-04-07T03:07:49;98401.88;;;1.14;76.49
37904;BME280;23738;50.422;18.758;2023-04-07T03:10:19;98402.65;;;1.16;76.76
37904;BME280;23738;50.422;18.758;2023-04-07T03:12:48;98404.77;;;1.11;76.91
37904;BME280;23738;50.422;18.758;2023-04-07T03:15:18;98405.59;;;1.08;76.72
37904;BME280;23738;50.422;18.758;2023-04-07T03:17:47;98404.73;;;1.08;76.42
37904;BME280;23738;50.422;18.758;2023-04-07T03:20:17;98407.27;;;1.14;76.43
37904;BME280;23738;50.422;18.758;2023-04-07T03:22:46;98410.57;;;1.19;76.45
37904;BME280;23738;50.422;18.758;2023-04-07T03:25:16;98407.80;;;1.20;76.63
37904;BME280;23738;50.422;18.758;2023-04-07T03:27:45;98403.77;;;1.19;76.76
37904;BME280;23738;50.422;18.758;2023-04-07T03:30:15;98401.34;;;1.20;76.69
37904;BME280;23738;50.422;18.758;2023-04-07T03:32:45;98398.66;;;1.18;76.65
37904;BME280;23738;50.422;18.758;2023-04-07T03:35:14;98402.65;;;1.16;77.06
37904;BME280;23738;50.422;18.758;2023-04-07T03:37:44;98400.46;;;1.13;76.82
37904;BME280;23738;50.422;18.758;2023-04-07T03:40:14;98399.20;;;1.10;76.89
37904;BME280;23738;50.422;18.758;2023-04-07T03:42:44;98396.12;;;1.10;76.96
37904;BME280;23738;50.422;18.758;2023-04-07T03:45:14;98394.25;;;1.11;76.71
37904;BME280;23738;50.422;18.758;2023-04-07T03:47:44;98392.04;;;1.12;76.93
37904;BME280;23738;50.422;18.758;2023-04-07T03:50:13;98392.41;;;1.14;77.19
37904;BME280;23738;50.422;18.758;2023-04-07T03:52:43;98389.65;;;1.12;77.33
37904;BME280;23738;50.422;18.758;2023-04-07T03:55:12;98394.64;;;1.11;77.27
37904;BME280;23738;50.422;18.758;2023-04-07T03:57:41;98392.00;;;1.11;77.32
37904;BME280;23738;50.422;18.758;2023-04-07T04:00:12;98389.32;;;1.12;77.32
37904;BME280;23738;50.422;18.758;2023-04-07T04:02:42;98388.23;;;1.12;77.26
37904;BME280;23738;50.422;18.758;2023-04-07T04:05:11;98391.02;;;1.14;77.51
37904;BME280;23738;50.422;18.758;2023-04-07T04:07:40;98393.56;;;1.14;77.36
37904;BME280;23738;50.422;18.758;2023-04-07T04:10:10;98399.97;;;1.17;77.38
37904;BME280;23738;50.422;18.758;2023-04-07T04:12:40;98396.80;;;1.17;77.56
37904;BME280;23738;50.422;18.758;2023-04-07T04:15:12;98398.82;;;1.14;77.30
37904;BME280;23738;50.422;18.758;2023-04-07T04:17:42;98399.75;;;1.13;77.69
37904;BME280;23738;50.422;18.758;2023-04-07T04:20:12;98400.35;;;1.11;77.53
37904;BME280;23738;50.422;18.758;2023-04-07T04:22:41;98399.84;;;1.09;77.80
37904;BME280;23738;50.422;18.758;2023-04-07T04:25:11;98403.37;;;1.10;77.52
37904;BME280;23738;50.422;18.758;2023-04-07T04:27:40;98401.31;;;1.13;77.40
37904;BME280;23738;50.422;18.758;2023-04-07T04:30:11;98408.39;;;1.18;77.48
37904;BME280;23738;50.422;18.758;2023-04-07T04:32:40;98415.23;;;1.22;77.66
37904;BME280;23738;50.422;18.758;2023-04-07T04:35:10;98413.19;;;1.24;77.92
37904;BME280;23738;50.422;18.758;2023-04-07T04:37:39;98416.34;;;1.21;77.79
37904;BME280;23738;50.422;18.758;2023-04-07T04:40:11;98414.52;;;1.19;77.97
37904;BME280;23738;50.422;18.758;2023-04-07T04:42:41;98414.46;;;1.18;77.92
37904;BME280;23738;50.422;18.758;2023-04-07T04:45:11;98409.31;;;1.17;77.86
37904;BME280;23738;50.422;18.758;2023-04-07T04:47:41;98407.09;;;1.19;77.80
37904;BME280;23738;50.422;18.758;2023-04-07T04:50:11;98404.02;;;1.20;77.84
37904;BME280;23738;50.422;18.758;2023-04-07T04:52:40;98404.20;;;1.20;77.94
37904;BME280;23738;50.422;18.758;2023-04-07T04:55:11;98406.55;;;1.17;78.17
37904;BME280;23738;50.422;18.758;2023-04-07T04:57:40;98408.22;;;1.14;78.13
37904;BME280;23738;50.422;18.758;2023-04-07T05:00:11;98410.58;;;1.12;77.95
37904;BME280;23738;50.422;18.758;2023-04-07T05:02:41;98406.30;;;1.14;77.93
37904;BME280;23738;50.422;18.758;2023-04-07T05:05:10;98413.12;;;1.17;77.95
37904;BME280;23738;50.422;18.758;2023-04-07T05:07:40;98413.77;;;1.21;78.09
37904;BME280;23738;50.422;18.758;2023-04-07T05:10:10;98411.94;;;1.24;78.49
37904;BME280;23738;50.422;18.758;2023-04-07T05:12:39;98411.88;;;1.23;78.03
37904;BME280;23738;50.422;18.758;2023-04-07T05:15:10;98408.38;;;1.21;78.14
37904;BME280;23738;50.422;18.758;2023-04-07T05:17:39;98410.13;;;1.19;78.45
37904;BME280;23738;50.422;18.758;2023-04-07T05:20:11;98411.64;;;1.20;78.25
37904;BME280;23738;50.422;18.758;2023-04-07T05:22:40;98414.02;;;1.22;78.24
37904;BME280;23738;50.422;18.758;2023-04-07T05:25:10;98415.36;;;1.23;78.33
37904;BME280;23738;50.422;18.758;2023-04-07T05:27:40;98412.77;;;1.24;78.17
37904;BME280;23738;50.422;18.758;2023-04-07T05:30:11;98416.36;;;1.25;78.38
37904;BME280;23738;50.422;18.758;2023-04-07T05:32:41;98413.61;;;1.25;78.42
37904;BME280;23738;50.422;18.758;2023-04-07T05:35:11;98413.55;;;1.25;78.59
37904;BME280;23738;50.422;18.758;2023-04-07T05:37:40;98413.47;;;1.23;78.45
37904;BME280;23738;50.422;18.758;2023-04-07T05:40:11;98414.42;;;1.21;78.54
37904;BME280;23738;50.422;18.758;2023-04-07T05:42:41;98410.95;;;1.21;78.27
37904;BME280;23738;50.422;18.758;2023-04-07T05:45:11;98411.67;;;1.27;78.61
37904;BME280;23738;50.422;18.758;2023-04-07T05:47:40;98411.19;;;1.30;78.45
37904;BME280;23738;50.422;18.758;2023-04-07T05:50:10;98409.98;;;1.32;78.65
37904;BME280;23738;50.422;18.758;2023-04-07T05:52:41;98414.64;;;1.34;78.80
37904;BME280;23738;50.422;18.758;2023-04-07T05:55:10;98413.67;;;1.35;78.84
37904;BME280;23738;50.422;18.758;2023-04-07T05:57:39;98412.14;;;1.33;78.82
37904;BME280;23738;50.422;18.758;2023-04-07T06:00:11;98413.52;;;1.31;78.71
37904;BME280;23738;50.422;18.758;2023-04-07T06:02:41;98415.52;;;1.30;78.65
37904;BME280;23738;50.422;18.758;2023-04-07T06:05:10;98416.86;;;1.33;78.61
37904;BME280;23738;50.422;18.758;2023-04-07T06:07:39;98415.13;;;1.38;78.66
37904;BME280;23738;50.422;18.758;2023-04-07T06:10:09;98419.67;;;1.39;78.69
37904;BME280;23738;50.422;18.758;2023-04-07T06:12:39;98416.33;;;1.40;78.93
37904;BME280;23738;50.422;18.758;2023-04-07T06:15:09;98412.49;;;1.38;78.86
37904;BME280;23738;50.422;18.758;2023-04-07T06:17:38;98412.55;;;1.34;78.87
37904;BME280;23738;50.422;18.758;2023-04-07T06:20:10;98408.34;;;1.35;79.15
37904;BME280;23738;50.422;18.758;2023-04-07T06:22:39;98412.14;;;1.38;79.07
37904;BME280;23738;50.422;18.758;2023-04-07T06:25:10;98412.81;;;1.42;79.00
37904;BME280;23738;50.422;18.758;2023-04-07T06:27:39;98413.88;;;1.45;79.07
37904;BME280;23738;50.422;18.758;2023-04-07T06:30:11;98417.38;;;1.49;79.16
37904;BME280;23738;50.422;18.758;2023-04-07T06:32:40;98417.15;;;1.51;79.12
37904;BME280;23738;50.422;18.758;2023-04-07T06:35:10;98418.50;;;1.53;79.19
37904;BME280;23738;50.422;18.758;2023-04-07T06:37:39;98417.99;;;1.51;79.14
37904;BME280;23738;50.422;18.758;2023-04-07T06:40:10;98416.48;;;1.49;79.30
37904;BME280;23738;50.422;18.758;2023-04-07T06:42:39;98420.29;;;1.49;79.13
37904;BME280;23738;50.422;18.758;2023-04-07T06:45:10;98421.20;;;1.54;79.28
37904;BME280;23738;50.422;18.758;2023-04-07T06:47:39;98418.68;;;1.59;79.36
37904;BME280;23738;50.422;18.758;2023-04-07T06:50:10;98413.36;;;1.59;79.34
37904;BME280;23738;50.422;18.758;2023-04-07T06:52:39;98418.11;;;1.60;79.32
37904;BME280;23738;50.422;18.758;2023-04-07T06:55:10;98418.38;;;1.62;79.50
37904;BME280;23738;50.422;18.758;2023-04-07T06:57:39;98419.69;;;1.63;79.58
37904;BME280;23738;50.422;18.758;2023-04-07T07:00:10;98423.69;;;1.61;79.42
37904;BME280;23738;50.422;18.758;2023-04-07T07:02:41;98420.05;;;1.63;79.60
37904;BME280;23738;50.422;18.758;2023-04-07T07:05:10;98417.87;;;1.66;79.33
37904;BME280;23738;50.422;18.758;2023-04-07T07:07:39;98413.77;;;1.70;79.42
37904;BME280;23738;50.422;18.758;2023-04-07T07:10:09;98413.69;;;1.71;79.35
37904;BME280;23738;50.422;18.758;2023-04-07T07:12:39;98417.23;;;1.71;79.45
37904;BME280;23738;50.422;18.758;2023-04-07T07:15:10;98413.83;;;1.70;79.70
37904;BME280;23738;50.422;18.758;2023-04-07T07:17:39;98420.52;;;1.69;79.90
37904;BME280;23738;50.422;18.758;2023-04-07T07:20:10;98419.77;;;1.68;79.84
37904;BME280;23738;50.422;18.758;2023-04-07T07:22:40;98424.55;;;1.72;79.88
37904;BME280;23738;50.422;18.758;2023-04-07T07:25:10;98416.09;;;1.75;79.58
37904;BME280;23738;50.422;18.758;2023-04-07T07:27:40;98414.30;;;1.79;79.62
37904;BME280;23738;50.422;18.758;2023-04-07T07:30:10;98415.59;;;1.80;79.68
37904;BME280;23738;50.422;18.758;2023-04-07T07:32:40;98419.38;;;1.82;79.62
37904;BME280;23738;50.422;18.758;2023-04-07T07:35:09;98418.58;;;1.84;80.23
37904;BME280;23738;50.422;18.758;2023-04-07T07:37:39;98415.52;;;1.81;80.28
37904;BME280;23738;50.422;18.758;2023-04-07T07:40:09;98421.58;;;1.81;80.01
37904;BME280;23738;50.422;18.758;2023-04-07T07:42:38;98426.48;;;1.84;80.18
37904;BME280;23738;50.422;18.758;2023-04-07T07:45:09;98424.02;;;1.86;80.13
37904;BME280;23738;50.422;18.758;2023-04-07T07:47:39;98432.35;;;1.92;80.25
37904;BME280;23738;50.422;18.758;2023-04-07T07:50:09;98437.83;;;1.97;80.45
37904;BME280;23738;50.422;18.758;2023-04-07T07:52:38;98440.84;;;1.98;80.41
37904;BME280;23738;50.422;18.758;2023-04-07T07:55:10;98438.48;;;2.06;80.32
37904;BME280;23738;50.422;18.758;2023-04-07T07:57:39;98438.88;;;2.14;80.44
37904;BME280;23738;50.422;18.758;2023-04-07T08:00:10;98437.44;;;2.20;80.49
37904;BME280;23738;50.422;18.758;2023-04-07T08:02:40;98441.01;;;2.21;80.46
37904;BME280;23738;50.422;18.758;2023-04-07T08:05:10;98446.63;;;2.22;80.73
37904;BME280;23738;50.422;18.758;2023-04-07T08:07:39;98451.73;;;2.19;80.61
37904;BME280;23738;50.422;18.758;2023-04-07T08:10:10;98455.05;;;2.23;80.57
37904;BME280;23738;50.422;18.758;2023-04-07T08:12:40;98460.79;;;2.28;80.48
37904;BME280;23738;50.422;18.758;2023-04-07T08:15:10;98462.24;;;2.33;80.36
37904;BME280;23738;50.422;18.758;2023-04-07T08:17:39;98462.31;;;2.39;80.54
37904;BME280;23738;50.422;18.758;2023-04-07T08:20:11;98456.38;;;2.45;80.42
37904;BME280;23738;50.422;18.758;2023-04-07T08:22:40;98459.13;;;2.47;80.31
37904;BME280;23738;50.422;18.758;2023-04-07T08:25:10;98457.66;;;2.48;80.55
37904;BME280;23738;50.422;18.758;2023-04-07T08:27:39;98455.59;;;2.42;80.49
37904;BME280;23738;50.422;18.758;2023-04-07T08:30:09;98452.09;;;2.37;80.24
37904;BME280;23738;50.422;18.758;2023-04-07T08:32:39;98446.63;;;2.35;80.31
37904;BME280;23738;50.422;18.758;2023-04-07T08:35:10;98446.08;;;2.31;80.06
37904;BME280;23738;50.422;18.758;2023-04-07T08:37:40;98438.98;;;2.29;80.33
37904;BME280;23738;50.422;18.758;2023-04-07T08:40:12;98433.16;;;2.26;80.56
37904;BME280;23738;50.422;18.758;2023-04-07T08:42:45;98435.72;;;2.25;80.41
37904;BME280;23738;50.422;18.758;2023-04-07T08:45:17;98430.27;;;2.24;80.87
37904;BME280;23738;50.422;18.758;2023-04-07T08:47:50;98427.64;;;2.20;80.49
37904;BME280;23738;50.422;18.758;2023-04-07T08:50:22;98427.51;;;2.24;80.72
37904;BME280;23738;50.422;18.758;2023-04-07T08:52:55;98426.36;;;2.26;80.69
37904;BME280;23738;50.422;18.758;2023-04-07T08:55:24;98431.73;;;2.34;81.01
37904;BME280;23738;50.422;18.758;2023-04-07T08:57:54;98428.33;;;2.39;80.76
37904;BME280;23738;50.422;18.758;2023-04-07T09:00:24;98432.25;;;2.46;81.26
37904;BME280;23738;50.422;18.758;2023-04-07T09:02:54;98432.88;;;2.47;81.35
37904;BME280;23738;50.422;18.758;2023-04-07T09:05:24;98436.28;;;2.44;80.75
37904;BME280;23738;50.422;18.758;2023-04-07T09:07:53;98430.77;;;2.45;80.89
37904;BME280;23738;50.422;18.758;2023-04-07T09:10:23;98431.94;;;2.51;81.17
37904;BME280;23738;50.422;18.758;2023-04-07T09:12:52;98434.88;;;2.58;81.09
37904;BME280;23738;50.422;18.758;2023-04-07T09:15:22;98431.89;;;2.60;81.16
37904;BME280;23738;50.422;18.758;2023-04-07T09:17:51;98428.07;;;2.57;81.41
37904;BME280;23738;50.422;18.758;2023-04-07T09:20:21;98431.25;;;2.51;81.85
37904;BME280;23738;50.422;18.758;2023-04-07T09:22:50;98432.96;;;2.50;81.71
37904;BME280;23738;50.422;18.758;2023-04-07T09:25:21;98428.81;;;2.46;81.56
37904;BME280;23738;50.422;18.758;2023-04-07T09:28:00;98433.50;;;2.46;81.56
37904;BME280;23738;50.422;18.758;2023-04-07T09:30:31;98432.43;;;2.46;81.78
37904;BME280;23738;50.422;18.758;2023-04-07T09:33:01;98430.60;;;2.45;81.73
37904;BME280;23738;50.422;18.758;2023-04-07T09:35:31;98429.77;;;2.47;82.06
37904;BME280;23738;50.422;18.758;2023-04-07T09:38:04;98428.92;;;2.48;81.79
37904;BME280;23738;50.422;18.758;2023-04-07T09:40:34;98429.55;;;2.49;81.98
37904;BME280;23738;50.422;18.758;2023-04-07T09:43:05;98431.97;;;2.51;81.84
37904;BME280;23738;50.422;18.758;2023-04-07T09:45:34;98426.14;;;2.52;81.78
37904;BME280;23738;50.422;18.758;2023-04-07T09:48:18;98424.75;;;2.52;81.94
37904;BME280;23738;50.422;18.758;2023-04-07T09:50:49;98422.16;;;2.51;82.39
37904;BME280;23738;50.422;18.758;2023-04-07T09:53:19;98424.94;;;2.52;82.22
37904;BME280;23738;50.422;18.758;2023-04-07T09:55:50;98423.64;;;2.52;82.20
37904;BME280;23738;50.422;18.758;2023-04-07T09:58:20;98423.69;;;2.54;82.01
37904;BME280;23738;50.422;18.758;2023-04-07T10:00:49;98417.14;;;2.56;82.22
37904;BME280;23738;50.422;18.758;2023-04-07T10:03:19;98412.39;;;2.57;82.58
37904;BME280;23738;50.422;18.758;2023-04-07T10:05:49;98413.37;;;2.56;82.74
37904;BME280;23738;50.422;18.758;2023-04-07T10:08:18;98404.74;;;2.52;82.89
37904;BME280;23738;50.422;18.758;2023-04-07T10:10:48;98401.98;;;2.55;82.80
37904;BME280;23738;50.422;18.758;2023-04-07T10:13:19;98396.39;;;2.61;83.13
37904;BME280;23738;50.422;18.758;2023-04-07T10:15:49;98398.98;;;2.66;83.30
37904;BME280;23738;50.422;18.758;2023-04-07T10:18:20;98403.67;;;2.70;82.62
37904;BME280;23738;50.422;18.758;2023-04-07T10:20:52;98399.31;;;2.75;83.07
37904;BME280;23738;50.422;18.758;2023-04-07T10:23:27;98400.78;;;2.78;83.05
37904;BME280;23738;50.422;18.758;2023-04-07T10:25:59;98404.11;;;2.77;82.92
37904;BME280;23738;50.422;18.758;2023-04-07T10:28:30;98402.84;;;2.78;82.68
37904;BME280;23738;50.422;18.758;2023-04-07T10:31:02;98411.13;;;2.80;82.82
37904;BME280;23738;50.422;18.758;2023-04-07T10:33:49;98409.33;;;2.84;82.66
37904;BME280;23738;50.422;18.758;2023-04-07T10:36:20;98410.73;;;2.88;83.16
37904;BME280;23738;50.422;18.758;2023-04-07T10:39:19;98410.81;;;2.88;82.90
37904;BME280;23738;50.422;18.758;2023-04-07T10:41:49;98409.20;;;2.87;83.01
37904;BME280;23738;50.422;18.758;2023-04-07T10:44:45;98405.80;;;2.86;83.45
37904;BME280;23738;50.422;18.758;2023-04-07T10:47:17;98407.13;;;2.88;83.20
37904;BME280;23738;50.422;18.758;2023-04-07T10:50:19;98408.23;;;2.92;83.04
37904;BME280;23738;50.422;18.758;2023-04-07T10:53:03;98408.59;;;2.91;83.13
37904;BME280;23738;50.422;18.758;2023-04-07T10:55:36;98411.20;;;2.89;83.13
37904;BME280;23738;50.422;18.758;2023-04-07T10:58:16;98413.19;;;2.87;83.08
37904;BME280;23738;50.422;18.758;2023-04-07T11:03:59;98408.92;;;2.93;83.16
37904;BME280;23738;50.422;18.758;2023-04-07T11:06:29;98401.21;;;2.95;83.03
37904;BME280;23738;50.422;18.758;2023-04-07T11:08:59;98403.00;;;3.00;83.21
37904;BME280;23738;50.422;18.758;2023-04-07T11:11:40;98398.60;;;2.97;83.28
37904;BME280;23738;50.422;18.758;2023-04-07T11:14:10;98403.81;;;2.94;83.20
37904;BME280;23738;50.422;18.758;2023-04-07T11:16:41;98412.26;;;2.96;83.06
37904;BME280;23738;50.422;18.758;2023-04-07T11:19:12;98414.19;;;3.00;83.29
37904;BME280;23738;50.422;18.758;2023-04-07T11:21:41;98412.27;;;3.01;83.34
37904;BME280;23738;50.422;18.758;2023-04-07T11:24:11;98408.76;;;3.02;83.07
37904;BME280;23738;50.422;18.758;2023-04-07T11:26:59;98411.29;;;3.01;83.40
37904;BME280;23738;50.422;18.758;2023-04-07T11:29:30;98411.34;;;2.99;83.48
37904;BME280;23738;50.422;18.758;2023-04-07T11:32:01;98405.91;;;2.96;83.49
37904;BME280;23738;50.422;18.758;2023-04-07T11:34:31;98403.52;;;2.97;83.52
37904;BME280;23738;50.422;18.758;2023-04-07T11:37:19;98401.95;;;3.00;83.66
37904;BME280;23738;50.422;18.758;2023-04-07T11:39:53;98394.84;;;3.00;83.40
37904;BME280;23738;50.422;18.758;2023-04-07T11:42:33;98395.50;;;3.00;83.68
37904;BME280;23738;50.422;18.758;2023-04-07T11:45:03;98400.10;;;3.03;83.71
37904;BME280;23738;50.422;18.758;2023-04-07T11:47:37;98399.48;;;3.04;83.41
37904;BME280;23738;50.422;18.758;2023-04-07T11:50:10;98398.18;;;3.08;83.79
37904;BME280;23738;50.422;18.758;2023-04-07T11:52:43;98393.86;;;3.13;83.60
37904;BME280;23738;50.422;18.758;2023-04-07T11:55:20;98397.64;;;3.20;83.63
37904;BME280;23738;50.422;18.758;2023-04-07T11:57:51;98395.94;;;3.24;83.61
37904;BME280;23738;50.422;18.758;2023-04-07T12:00:21;98397.38;;;3.25;83.65
37904;BME280;23738;50.422;18.758;2023-04-07T12:02:51;98395.54;;;3.22;83.69
37904;BME280;23738;50.422;18.758;2023-04-07T12:05:20;98394.49;;;3.22;83.62
37904;BME280;23738;50.422;18.758;2023-04-07T12:07:54;98396.67;;;3.25;83.52
37904;BME280;23738;50.422;18.758;2023-04-07T12:10:25;98396.09;;;3.29;83.64
37904;BME280;23738;50.422;18.758;2023-04-07T12:12:55;98395.18;;;3.31;83.61
37904;BME280;23738;50.422;18.758;2023-04-07T12:15:24;98388.23;;;3.31;83.73
37904;BME280;23738;50.422;18.758;2023-04-07T12:17:54;98389.10;;;3.29;84.10
37904;BME280;23738;50.422;18.758;2023-04-07T12:20:23;98388.50;;;3.28;83.88
37904;BME280;23738;50.422;18.758;2023-04-07T12:22:53;98387.61;;;3.27;83.88
37904;BME280;23738;50.422;18.758;2023-04-07T12:25:23;98389.14;;;3.30;83.98
37904;BME280;23738;50.422;18.758;2023-04-07T12:27:52;98387.75;;;3.32;84.23
37904;BME280;23738;50.422;18.758;2023-04-07T12:30:21;98385.80;;;3.31;84.02
37904;BME280;23738;50.422;18.758;2023-04-07T12:32:50;98381.70;;;3.28;84.20
37904;BME280;23738;50.422;18.758;2023-04-07T12:35:20;98385.39;;;3.30;84.16
37904;BME280;23738;50.422;18.758;2023-04-07T12:37:50;98383.05;;;3.28;84.35
37904;BME280;23738;50.422;18.758;2023-04-07T12:40:20;98386.75;;;3.28;84.26
37904;BME280;23738;50.422;18.758;2023-04-07T12:42:49;98387.43;;;3.28;84.08
37904;BME280;23738;50.422;18.758;2023-04-07T12:45:18;98387.35;;;3.31;84.24
37904;BME280;23738;50.422;18.758;2023-04-07T12:47:48;98388.11;;;3.32;84.33
37904;BME280;23738;50.422;18.758;2023-04-07T12:50:18;98389.77;;;3.31;84.25
37904;BME280;23738;50.422;18.758;2023-04-07T12:52:47;98394.77;;;3.35;84.35
37904;BME280;23738;50.422;18.758;2023-04-07T12:55:17;98399.09;;;3.40;84.32
37904;BME280;23738;50.422;18.758;2023-04-07T12:57:46;98402.02;;;3.51;84.35
37904;BME280;23738;50.422;18.758;2023-04-07T13:00:16;98401.83;;;3.56;84.58
37904;BME280;23738;50.422;18.758;2023-04-07T13:02:46;98402.00;;;3.54;84.62
37904;BME280;23738;50.422;18.758;2023-04-07T13:05:15;98401.02;;;3.50;84.62
37904;BME280;23738;50.422;18.758;2023-04-07T13:07:45;98392.68;;;3.48;84.35
37904;BME280;23738;50.422;18.758;2023-04-07T13:10:15;98393.98;;;3.47;84.30
37904;BME280;23738;50.422;18.758;2023-04-07T13:12:44;98386.73;;;3.49;84.64
37904;BME280;23738;50.422;18.758;2023-04-07T13:15:13;98383.95;;;3.47;84.70
37904;BME280;23738;50.422;18.758;2023-04-07T13:17:43;98384.64;;;3.42;84.64
37904;BME280;23738;50.422;18.758;2023-04-07T13:20:13;98383.23;;;3.40;84.77
37904;BME280;23738;50.422;18.758;2023-04-07T13:22:42;98388.13;;;3.42;84.57